sensor_id;sensor_type;location;lat;lon;timestamp;P1;durP1;ratioP1;P2;durP2;ratioP2
7571;SDS011;3827;49.928;8.548;2023-05-27T00:01:09;3.35;;;1.70;;
7571;SDS011;3827;49.928;8.548;2023-05-27T00:03:37;5.15;;;2.03;;
7571;SDS011;3827;49.928;8.548;2023-05-27T00:06:04;5.40;;;1.97;;
7571;SDS011;3827;49.928;8.548;2023-05-27T00:08:33;4.03;;;1.83;;
7571;SDS011;3827;49.928;8.548;2023-05-27T00:11:00;7.27;;;2.30;;
7571;SDS011;3827;49.928;8.548;2023-05-27T00:13:26;5.13;;;2.08;;
7571;SDS011;3827;49.928;8.548;2023-05-27T00:15:53;5.38;;;2.00;;
7571;SDS011;3827;49.928;8.548;2023-05-27T00:18:20;4.50;;;2.20;;
7571;SDS011;3827;49.928;8.548;2023-05-27T00:20:47;3.47;;;1.87;;
7571;SDS011;3827;49.928;8.548;2023-05-27T00:23:14;5.65;;;2.17;;
7571;SDS011;3827;49.928;8.548;2023-05-27T00:25:42;6.50;;;2.00;;
7571;SDS011;3827;49.928;8.548;2023-05-27T00:28:10;5.32;;;2.15;;
7571;SDS011;3827;49.928;8.548;2023-05-27T00:30:36;5.07;;;1.67;;
7571;SDS011;3827;49.928;8.548;2023-05-27T00:33:03;6.53;;;2.30;;
7571;SDS011;3827;49.928;8.548;2023-05-27T00:35:30;6.03;;;1.80;;
7571;SDS011;3827;49.928;8.548;2023-05-27T00:37:57;3.13;;;2.10;;
7571;SDS011;3827;49.928;8.548;2023-05-27T00:40:25;4.75;;;2.20;;
7571;SDS011;3827;49.928;8.548;2023-05-27T00:42:56;6.40;;;2.40;;
7571;SDS011;3827;49.928;8.548;2023-05-27T00:45:23;4.20;;;2.00;;
7571;SDS011;3827;49.928;8.548;2023-05-27T00:47:50;4.13;;;2.17;;
7571;SDS011;3827;49.928;8.548;2023-05-27T00:50:17;7.97;;;2.13;;
7571;SDS011;3827;49.928;8.548;2023-05-27T00:52:44;4.03;;;2.00;;
7571;SDS011;3827;49.928;8.548;2023-05-27T00:55:11;3.97;;;1.85;;
7571;SDS011;3827;49.928;8.548;2023-05-27T00:57:39;7.05;;;2.25;;
7571;SDS011;3827;49.928;8.548;2023-05-27T01:00:07;6.05;;;2.15;;
7571;SDS011;3827;49.928;8.548;2023-05-27T01:02:36;5.10;;;2.03;;
7571;SDS011;3827;49.928;8.548;2023-05-27T01:05:05;5.30;;;2.15;;
7571;SDS011;3827;49.928;8.548;2023-05-27T01:07:34;5.13;;;2.00;;
7571;SDS011;3827;49.928;8.548;2023-05-27T01:10:15;5.37;;;2.10;;
7571;SDS011;3827;49.928;8.548;2023-05-27T01:12:49;4.83;;;1.93;;
7571;SDS011;3827;49.928;8.548;2023-05-27T01:15:22;5.37;;;2.00;;
7571;SDS011;3827;49.928;8.548;2023-05-27T01:17:51;5.25;;;2.30;;
7571;SDS011;3827;49.928;8.548;2023-05-27T01:20:21;4.90;;;1.73;;
7571;SDS011;3827;49.928;8.548;2023-05-27T01:22:50;6.25;;;2.08;;
7571;SDS011;3827;49.928;8.548;2023-05-27T01:25:18;3.85;;;1.70;;
7571;SDS011;3827;49.928;8.548;2023-05-27T01:27:46;4.43;;;1.90;;
7571;SDS011;3827;49.928;8.548;2023-05-27T01:30:13;5.00;;;2.33;;
7571;SDS011;3827;49.928;8.548;2023-05-27T01:32:41;6.43;;;1.98;;
7571;SDS011;3827;49.928;8.548;2023-05-27T01:35:13;3.77;;;1.97;;
7571;SDS011;3827;49.928;8.548;2023-05-27T01:37:46;5.13;;;2.10;;
7571;SDS011;3827;49.928;8.548;2023-05-27T01:40:15;6.03;;;2.00;;
7571;SDS011;3827;49.928;8.548;2023-05-27T01:42:43;5.57;;;2.00;;
7571;SDS011;3827;49.928;8.548;2023-05-27T01:45:11;4.85;;;2.22;;
7571;SDS011;3827;49.928;8.548;2023-05-27T01:47:38;5.47;;;2.10;;
7571;SDS011;3827;49.928;8.548;2023-05-27T01:50:05;4.72;;;2.22;;
7571;SDS011;3827;49.928;8.548;2023-05-27T01:52:33;4.82;;;1.98;;
7571;SDS011;3827;49.928;8.548;2023-05-27T01:55:00;6.20;;;1.88;;
7571;SDS011;3827;49.928;8.548;2023-05-27T01:57:28;7.65;;;2.05;;
7571;SDS011;3827;49.928;8.548;2023-05-27T01:59:55;6.45;;;1.88;;
7571;SDS011;3827;49.928;8.548;2023-05-27T02:02:22;4.47;;;2.10;;
7571;SDS011;3827;49.928;8.548;2023-05-27T02:04:49;4.60;;;2.10;;
7571;SDS011;3827;49.928;8.548;2023-05-27T02:07:16;4.30;;;1.95;;
7571;SDS011;3827;49.928;8.548;2023-05-27T02:09:44;5.43;;;2.00;;
7571;SDS011;3827;49.928;8.548;2023-05-27T02:12:11;4.22;;;2.15;;
7571;SDS011;3827;49.928;8.548;2023-05-27T02:14:39;4.63;;;1.90;;
7571;SDS011;3827;49.928;8.548;2023-05-27T02:17:06;4.43;;;2.10;;
7571;SDS011;3827;49.928;8.548;2023-05-27T02:19:33;5.30;;;2.10;;
7571;SDS011;3827;49.928;8.548;2023-05-27T02:22:00;4.00;;;2.10;;
7571;SDS011;3827;49.928;8.548;2023-05-27T02:24:27;5.50;;;2.28;;
7571;SDS011;3827;49.928;8.548;2023-05-27T02:26:53;4.13;;;2.10;;
7571;SDS011;3827;49.928;8.548;2023-05-27T02:29:20;5.00;;;2.00;;
7571;SDS011;3827;49.928;8.548;2023-05-27T02:31:48;4.78;;;2.42;;
7571;SDS011;3827;49.928;8.548;2023-05-27T02:34:15;4.65;;;2.20;;
7571;SDS011;3827;49.928;8.548;2023-05-27T02:36:42;5.93;;;2.00;;
7571;SDS011;3827;49.928;8.548;2023-05-27T02:39:09;5.35;;;2.35;;
7571;SDS011;3827;49.928;8.548;2023-05-27T02:41:36;5.72;;;2.20;;
7571;SDS011;3827;49.928;8.548;2023-05-27T02:44:03;5.30;;;2.53;;
7571;SDS011;3827;49.928;8.548;2023-05-27T02:46:31;4.55;;;2.10;;
7571;SDS011;3827;49.928;8.548;2023-05-27T02:48:59;5.75;;;2.30;;
7571;SDS011;3827;49.928;8.548;2023-05-27T02:51:27;7.05;;;2.20;;
7571;SDS011;3827;49.928;8.548;2023-05-27T02:53:54;5.80;;;2.60;;
7571;SDS011;3827;49.928;8.548;2023-05-27T02:56:21;5.18;;;2.00;;
7571;SDS011;3827;49.928;8.548;2023-05-27T02:58:50;5.70;;;2.30;;
7571;SDS011;3827;49.928;8.548;2023-05-27T03:01:17;6.63;;;2.70;;
7571;SDS011;3827;49.928;8.548;2023-05-27T03:03:44;6.05;;;2.08;;
7571;SDS011;3827;49.928;8.548;2023-05-27T03:06:12;5.90;;;2.17;;
7571;SDS011;3827;49.928;8.548;2023-05-27T03:08:39;4.53;;;2.50;;
7571;SDS011;3827;49.928;8.548;2023-05-27T03:11:06;4.13;;;2.10;;
7571;SDS011;3827;49.928;8.548;2023-05-27T03:13:33;4.80;;;2.25;;
7571;SDS011;3827;49.928;8.548;2023-05-27T03:16:00;6.07;;;2.17;;
7571;SDS011;3827;49.928;8.548;2023-05-27T03:18:27;5.50;;;2.23;;
7571;SDS011;3827;49.928;8.548;2023-05-27T03:20:53;6.05;;;2.80;;
7571;SDS011;3827;49.928;8.548;2023-05-27T03:23:22;5.80;;;2.63;;
7571;SDS011;3827;49.928;8.548;2023-05-27T03:25:49;5.90;;;2.42;;
7571;SDS011;3827;49.928;8.548;2023-05-27T03:28:16;3.75;;;2.10;;
7571;SDS011;3827;49.928;8.548;2023-05-27T03:30:43;5.32;;;2.40;;
7571;SDS011;3827;49.928;8.548;2023-05-27T03:33:10;5.55;;;2.22;;
7571;SDS011;3827;49.928;8.548;2023-05-27T03:35:36;4.82;;;2.47;;
7571;SDS011;3827;49.928;8.548;2023-05-27T03:38:04;6.45;;;2.42;;
7571;SDS011;3827;49.928;8.548;2023-05-27T03:40:32;7.82;;;2.80;;
7571;SDS011;3827;49.928;8.548;2023-05-27T03:42:59;6.30;;;2.60;;
7571;SDS011;3827;49.928;8.548;2023-05-27T03:45:25;5.38;;;2.92;;
7571;SDS011;3827;49.928;8.548;2023-05-27T03:47:52;7.45;;;2.92;;
7571;SDS011;3827;49.928;8.548;2023-05-27T03:50:19;4.55;;;2.60;;
7571;SDS011;3827;49.928;8.548;2023-05-27T03:52:46;7.45;;;2.90;;
7571;SDS011;3827;49.928;8.548;2023-05-27T03:55:12;8.48;;;3.20;;
7571;SDS011;3827;49.928;8.548;2023-05-27T03:57:41;7.70;;;3.53;;
7571;SDS011;3827;49.928;8.548;2023-05-27T04:00:08;5.83;;;2.80;;
7571;SDS011;3827;49.928;8.548;2023-05-27T04:02:37;5.40;;;3.00;;
7571;SDS011;3827;49.928;8.548;2023-05-27T04:05:04;5.45;;;2.70;;
7571;SDS011;3827;49.928;8.548;2023-05-27T04:07:31;8.02;;;3.05;;
7571;SDS011;3827;49.928;8.548;2023-05-27T04:09:57;5.15;;;3.10;;
7571;SDS011;3827;49.928;8.548;2023-05-27T04:12:24;5.63;;;2.90;;
7571;SDS011;3827;49.928;8.548;2023-05-27T04:14:52;5.95;;;2.72;;
7571;SDS011;3827;49.928;8.548;2023-05-27T04:17:21;5.43;;;2.75;;
7571;SDS011;3827;49.928;8.548;2023-05-27T04:19:48;6.10;;;3.10;;
7571;SDS011;3827;49.928;8.548;2023-05-27T04:22:16;6.85;;;2.80;;
7571;SDS011;3827;49.928;8.548;2023-05-27T04:24:43;5.65;;;2.63;;
7571;SDS011;3827;49.928;8.548;2023-05-27T04:27:10;6.07;;;3.05;;
7571;SDS011;3827;49.928;8.548;2023-05-27T04:29:38;5.97;;;3.00;;
7571;SDS011;3827;49.928;8.548;2023-05-27T04:32:07;6.53;;;3.00;;
7571;SDS011;3827;49.928;8.548;2023-05-27T04:34:35;5.15;;;2.50;;
7571;SDS011;3827;49.928;8.548;2023-05-27T04:37:02;6.80;;;2.90;;
7571;SDS011;3827;49.928;8.548;2023-05-27T04:39:29;8.07;;;2.77;;
7571;SDS011;3827;49.928;8.548;2023-05-27T04:41:55;7.88;;;2.85;;
7571;SDS011;3827;49.928;8.548;2023-05-27T04:44:23;6.13;;;2.70;;
7571;SDS011;3827;49.928;8.548;2023-05-27T04:46:51;4.60;;;2.75;;
7571;SDS011;3827;49.928;8.548;2023-05-27T04:49:20;5.57;;;2.90;;
7571;SDS011;3827;49.928;8.548;2023-05-27T04:51:47;5.75;;;2.72;;
7571;SDS011;3827;49.928;8.548;2023-05-27T04:54:14;5.18;;;2.50;;
7571;SDS011;3827;49.928;8.548;2023-05-27T04:56:40;6.22;;;2.95;;
7571;SDS011;3827;49.928;8.548;2023-05-27T04:59:08;6.28;;;2.67;;
7571;SDS011;3827;49.928;8.548;2023-05-27T05:01:41;4.65;;;2.67;;
7571;SDS011;3827;49.928;8.548;2023-05-27T05:04:25;6.38;;;2.65;;
7571;SDS011;3827;49.928;8.548;2023-05-27T05:06:52;5.60;;;2.90;;
7571;SDS011;3827;49.928;8.548;2023-05-27T05:09:20;5.22;;;2.60;;
7571;SDS011;3827;49.928;8.548;2023-05-27T05:11:47;3.67;;;2.33;;
7571;SDS011;3827;49.928;8.548;2023-05-27T05:14:14;5.55;;;2.78;;
7571;SDS011;3827;49.928;8.548;2023-05-27T05:16:41;6.38;;;2.70;;
7571;SDS011;3827;49.928;8.548;2023-05-27T05:19:07;5.90;;;3.17;;
7571;SDS011;3827;49.928;8.548;2023-05-27T05:21:35;6.20;;;2.55;;
7571;SDS011;3827;49.928;8.548;2023-05-27T05:24:02;5.70;;;2.55;;
7571;SDS011;3827;49.928;8.548;2023-05-27T05:26:29;5.43;;;3.00;;
7571;SDS011;3827;49.928;8.548;2023-05-27T05:28:56;6.68;;;2.75;;
7571;SDS011;3827;49.928;8.548;2023-05-27T05:31:23;6.90;;;2.60;;
7571;SDS011;3827;49.928;8.548;2023-05-27T05:33:50;4.32;;;2.40;;
7571;SDS011;3827;49.928;8.548;2023-05-27T05:36:17;5.95;;;2.97;;
7571;SDS011;3827;49.928;8.548;2023-05-27T05:38:47;4.40;;;2.28;;
7571;SDS011;3827;49.928;8.548;2023-05-27T05:41:14;5.15;;;2.47;;
7571;SDS011;3827;49.928;8.548;2023-05-27T05:43:41;5.23;;;3.00;;
7571;SDS011;3827;49.928;8.548;2023-05-27T05:46:07;6.90;;;2.63;;
7571;SDS011;3827;49.928;8.548;2023-05-27T05:48:34;5.38;;;2.67;;
7571;SDS011;3827;49.928;8.548;2023-05-27T05:51:02;6.72;;;2.78;;
7571;SDS011;3827;49.928;8.548;2023-05-27T05:53:29;6.72;;;2.75;;
7571;SDS011;3827;49.928;8.548;2023-05-27T05:55:58;5.80;;;2.72;;
7571;SDS011;3827;49.928;8.548;2023-05-27T05:58:25;6.43;;;2.80;;
7571;SDS011;3827;49.928;8.548;2023-05-27T06:00:51;7.25;;;3.00;;
7571;SDS011;3827;49.928;8.548;2023-05-27T06:03:18;5.35;;;2.40;;
7571;SDS011;3827;49.928;8.548;2023-05-27T06:05:45;5.00;;;2.53;;
7571;SDS011;3827;49.928;8.548;2023-05-27T06:08:12;5.90;;;2.50;;
7571;SDS011;3827;49.928;8.548;2023-05-27T06:10:39;5.20;;;2.45;;
7571;SDS011;3827;49.928;8.548;2023-05-27T06:13:07;6.07;;;2.53;;
7571;SDS011;3827;49.928;8.548;2023-05-27T06:15:36;4.65;;;2.20;;
7571;SDS011;3827;49.928;8.548;2023-05-27T06:18:03;6.07;;;2.65;;
7571;SDS011;3827;49.928;8.548;2023-05-27T06:20:30;5.47;;;2.43;;
7571;SDS011;3827;49.928;8.548;2023-05-27T06:22:57;6.85;;;2.75;;
7571;SDS011;3827;49.928;8.548;2023-05-27T06:25:24;6.03;;;2.40;;
7571;SDS011;3827;49.928;8.548;2023-05-27T06:27:50;4.47;;;2.30;;
7571;SDS011;3827;49.928;8.548;2023-05-27T06:30:19;4.75;;;2.42;;
7571;SDS011;3827;49.928;8.548;2023-05-27T06:32:46;5.82;;;3.13;;
7571;SDS011;3827;49.928;8.548;2023-05-27T06:35:12;3.60;;;2.15;;
7571;SDS011;3827;49.928;8.548;2023-05-27T06:37:39;4.90;;;2.08;;
7571;SDS011;3827;49.928;8.548;2023-05-27T06:40:07;5.32;;;2.53;;
7571;SDS011;3827;49.928;8.548;2023-05-27T06:42:34;4.80;;;2.33;;
7571;SDS011;3827;49.928;8.548;2023-05-27T06:45:01;4.07;;;2.22;;
7571;SDS011;3827;49.928;8.548;2023-05-27T06:47:29;4.60;;;2.30;;
7571;SDS011;3827;49.928;8.548;2023-05-27T06:49:56;5.00;;;2.40;;
7571;SDS011;3827;49.928;8.548;2023-05-27T06:52:23;4.13;;;2.28;;
7571;SDS011;3827;49.928;8.548;2023-05-27T06:54:50;3.58;;;2.30;;
7571;SDS011;3827;49.928;8.548;2023-05-27T06:57:17;7.00;;;2.17;;
7571;SDS011;3827;49.928;8.548;2023-05-27T06:59:43;5.45;;;2.25;;
7571;SDS011;3827;49.928;8.548;2023-05-27T07:02:10;5.90;;;2.47;;
7571;SDS011;3827;49.928;8.548;2023-05-27T07:04:38;6.00;;;2.28;;
7571;SDS011;3827;49.928;8.548;2023-05-27T07:07:05;5.05;;;2.10;;
7571;SDS011;3827;49.928;8.548;2023-05-27T07:09:32;5.53;;;2.22;;
7571;SDS011;3827;49.928;8.548;2023-05-27T07:11:59;5.43;;;2.42;;
7571;SDS011;3827;49.928;8.548;2023-05-27T07:14:27;5.57;;;2.35;;
7571;SDS011;3827;49.928;8.548;2023-05-27T07:16:54;4.57;;;2.50;;
7571;SDS011;3827;49.928;8.548;2023-05-27T07:19:20;7.70;;;2.17;;
7571;SDS011;3827;49.928;8.548;2023-05-27T07:21:49;5.00;;;2.38;;
7571;SDS011;3827;49.928;8.548;2023-05-27T07:24:16;5.68;;;2.40;;
7571;SDS011;3827;49.928;8.548;2023-05-27T07:26:43;4.15;;;1.80;;
7571;SDS011;3827;49.928;8.548;2023-05-27T07:29:10;4.65;;;2.15;;
7571;SDS011;3827;49.928;8.548;2023-05-27T07:31:37;5.65;;;2.30;;
7571;SDS011;3827;49.928;8.548;2023-05-27T07:34:04;6.20;;;2.17;;
7571;SDS011;3827;49.928;8.548;2023-05-27T07:36:30;6.57;;;2.20;;
7571;SDS011;3827;49.928;8.548;2023-05-27T07:38:59;5.85;;;2.13;;
7571;SDS011;3827;49.928;8.548;2023-05-27T07:41:25;4.75;;;2.20;;
7571;SDS011;3827;49.928;8.548;2023-05-27T07:43:54;5.68;;;2.13;;
7571;SDS011;3827;49.928;8.548;2023-05-27T07:46:21;6.50;;;2.53;;
7571;SDS011;3827;49.928;8.548;2023-05-27T07:48:48;4.45;;;2.30;;
7571;SDS011;3827;49.928;8.548;2023-05-27T07:51:15;6.32;;;2.28;;
7571;SDS011;3827;49.928;8.548;2023-05-27T07:53:41;6.90;;;2.40;;
7571;SDS011;3827;49.928;8.548;2023-05-27T07:56:10;6.05;;;2.30;;
7571;SDS011;3827;49.928;8.548;2023-05-27T07:58:36;5.57;;;2.30;;
7571;SDS011;3827;49.928;8.548;2023-05-27T08:01:03;6.75;;;2.20;;
7571;SDS011;3827;49.928;8.548;2023-05-27T08:03:30;5.57;;;2.13;;
7571;SDS011;3827;49.928;8.548;2023-05-27T08:05:57;3.63;;;1.92;;
7571;SDS011;3827;49.928;8.548;2023-05-27T08:08:24;5.22;;;2.28;;
7571;SDS011;3827;49.928;8.548;2023-05-27T08:10:50;7.30;;;2.50;;
7571;SDS011;3827;49.928;8.548;2023-05-27T08:13:18;4.40;;;2.22;;
7571;SDS011;3827;49.928;8.548;2023-05-27T08:15:45;4.90;;;2.30;;
7571;SDS011;3827;49.928;8.548;2023-05-27T08:18:12;4.40;;;1.87;;
7571;SDS011;3827;49.928;8.548;2023-05-27T08:20:39;4.22;;;2.17;;
7571;SDS011;3827;49.928;8.548;2023-05-27T08:23:06;5.03;;;2.28;;
7571;SDS011;3827;49.928;8.548;2023-05-27T08:25:33;5.13;;;2.05;;
7571;SDS011;3827;49.928;8.548;2023-05-27T08:28:00;5.78;;;2.17;;
7571;SDS011;3827;49.928;8.548;2023-05-27T08:30:29;6.13;;;2.30;;
7571;SDS011;3827;49.928;8.548;2023-05-27T08:32:56;7.22;;;2.20;;
7571;SDS011;3827;49.928;8.548;2023-05-27T08:35:23;6.00;;;2.35;;
7571;SDS011;3827;49.928;8.548;2023-05-27T08:37:50;6.10;;;2.28;;
7571;SDS011;3827;49.928;8.548;2023-05-27T08:40:17;3.88;;;2.10;;
7571;SDS011;3827;49.928;8.548;2023-05-27T08:42:45;4.80;;;2.38;;
7571;SDS011;3827;49.928;8.548;2023-05-27T08:45:12;6.25;;;2.20;;
7571;SDS011;3827;49.928;8.548;2023-05-27T08:47:40;4.75;;;2.00;;
7571;SDS011;3827;49.928;8.548;2023-05-27T08:50:08;4.80;;;2.10;;
7571;SDS011;3827;49.928;8.548;2023-05-27T08:52:37;4.60;;;2.13;;
7571;SDS011;3827;49.928;8.548;2023-05-27T08:55:08;5.93;;;2.25;;
7571;SDS011;3827;49.928;8.548;2023-05-27T08:57:38;4.10;;;2.00;;
7571;SDS011;3827;49.928;8.548;2023-05-27T09:00:10;5.18;;;2.40;;
7571;SDS011;3827;49.928;8.548;2023-05-27T09:02:38;4.60;;;2.22;;
7571;SDS011;3827;49.928;8.548;2023-05-27T09:05:07;4.55;;;2.10;;
7571;SDS011;3827;49.928;8.548;2023-05-27T09:07:36;4.22;;;2.20;;
7571;SDS011;3827;49.928;8.548;2023-05-27T09:10:04;5.10;;;2.08;;
7571;SDS011;3827;49.928;8.548;2023-05-27T09:12:32;5.73;;;2.67;;
7571;SDS011;3827;49.928;8.548;2023-05-27T09:14:59;4.15;;;2.38;;
7571;SDS011;3827;49.928;8.548;2023-05-27T09:17:26;5.63;;;2.38;;
7571;SDS011;3827;49.928;8.548;2023-05-27T09:19:55;4.70;;;2.10;;
7571;SDS011;3827;49.928;8.548;2023-05-27T09:22:23;4.38;;;2.28;;
7571;SDS011;3827;49.928;8.548;2023-05-27T09:24:52;6.60;;;2.25;;
7571;SDS011;3827;49.928;8.548;2023-05-27T09:27:23;5.57;;;2.15;;
7571;SDS011;3827;49.928;8.548;2023-05-27T09:29:50;7.60;;;2.67;;
7571;SDS011;3827;49.928;8.548;2023-05-27T09:32:23;4.22;;;1.92;;
7571;SDS011;3827;49.928;8.548;2023-05-27T09:34:50;5.93;;;2.30;;
7571;SDS011;3827;49.928;8.548;2023-05-27T09:37:18;4.78;;;2.08;;
7571;SDS011;3827;49.928;8.548;2023-05-27T09:39:46;5.63;;;2.50;;
7571;SDS011;3827;49.928;8.548;2023-05-27T09:42:13;3.85;;;2.10;;
7571;SDS011;3827;49.928;8.548;2023-05-27T09:44:40;4.70;;;2.10;;
7571;SDS011;3827;49.928;8.548;2023-05-27T09:47:07;4.65;;;2.10;;
7571;SDS011;3827;49.928;8.548;2023-05-27T09:49:36;7.55;;;2.30;;
7571;SDS011;3827;49.928;8.548;2023-05-27T09:52:05;6.20;;;2.00;;
7571;SDS011;3827;49.928;8.548;2023-05-27T09:54:34;7.30;;;2.33;;
7571;SDS011;3827;49.928;8.548;2023-05-27T09:57:03;5.63;;;2.03;;
7571;SDS011;3827;49.928;8.548;2023-05-27T09:59:33;4.13;;;2.15;;
7571;SDS011;3827;49.928;8.548;2023-05-27T10:02:00;8.03;;;2.40;;
7571;SDS011;3827;49.928;8.548;2023-05-27T10:04:27;3.53;;;1.70;;
7571;SDS011;3827;49.928;8.548;2023-05-27T10:06:55;4.63;;;1.97;;
7571;SDS011;3827;49.928;8.548;2023-05-27T10:09:23;5.65;;;2.35;;
7571;SDS011;3827;49.928;8.548;2023-05-27T10:11:53;3.92;;;2.00;;
7571;SDS011;3827;49.928;8.548;2023-05-27T10:14:20;4.40;;;1.88;;
7571;SDS011;3827;49.928;8.548;2023-05-27T10:16:50;5.90;;;2.30;;
7571;SDS011;3827;49.928;8.548;2023-05-27T10:19:19;5.45;;;1.98;;
7571;SDS011;3827;49.928;8.548;2023-05-27T10:21:46;5.70;;;2.08;;
7571;SDS011;3827;49.928;8.548;2023-05-27T10:24:13;4.22;;;2.00;;
7571;SDS011;3827;49.928;8.548;2023-05-27T10:26:41;6.32;;;2.30;;
7571;SDS011;3827;49.928;8.548;2023-05-27T10:29:10;4.97;;;2.30;;
7571;SDS011;3827;49.928;8.548;2023-05-27T10:31:43;4.22;;;1.83;;
7571;SDS011;3827;49.928;8.548;2023-05-27T10:34:11;4.53;;;1.85;;
7571;SDS011;3827;49.928;8.548;2023-05-27T10:36:38;3.78;;;2.08;;
7571;SDS011;3827;49.928;8.548;2023-05-27T10:39:06;4.38;;;1.90;;
7571;SDS011;3827;49.928;8.548;2023-05-27T10:41:40;6.22;;;2.50;;
7571;SDS011;3827;49.928;8.548;2023-05-27T10:44:07;5.00;;;2.33;;
7571;SDS011;3827;49.928;8.548;2023-05-27T10:46:39;4.13;;;2.05;;
7571;SDS011;3827;49.928;8.548;2023-05-27T10:49:10;5.03;;;1.80;;
7571;SDS011;3827;49.928;8.548;2023-05-27T10:51:39;3.95;;;2.15;;
7571;SDS011;3827;49.928;8.548;2023-05-27T10:54:07;3.78;;;2.22;;
7571;SDS011;3827;49.928;8.548;2023-05-27T10:56:34;5.50;;;2.42;;
7571;SDS011;3827;49.928;8.548;2023-05-27T10:59:01;3.67;;;2.00;;
7571;SDS011;3827;49.928;8.548;2023-05-27T11:01:31;3.85;;;2.08;;
7571;SDS011;3827;49.928;8.548;2023-05-27T11:03:59;2.42;;;1.90;;
7571;SDS011;3827;49.928;8.548;2023-05-27T11:06:26;4.65;;;2.22;;
7571;SDS011;3827;49.928;8.548;2023-05-27T11:08:54;5.60;;;1.98;;
7571;SDS011;3827;49.928;8.548;2023-05-27T11:11:21;6.03;;;2.22;;
7571;SDS011;3827;49.928;8.548;2023-05-27T11:13:47;5.15;;;2.35;;
7571;SDS011;3827;49.928;8.548;2023-05-27T11:16:15;4.80;;;2.00;;
7571;SDS011;3827;49.928;8.548;2023-05-27T11:18:43;4.17;;;2.03;;
7571;SDS011;3827;49.928;8.548;2023-05-27T11:21:12;4.00;;;2.13;;
7571;SDS011;3827;49.928;8.548;2023-05-27T11:23:42;4.35;;;2.00;;
7571;SDS011;3827;49.928;8.548;2023-05-27T11:26:11;3.90;;;2.28;;
7571;SDS011;3827;49.928;8.548;2023-05-27T11:28:44;4.07;;;2.30;;
7571;SDS011;3827;49.928;8.548;2023-05-27T11:31:12;5.22;;;2.03;;
7571;SDS011;3827;49.928;8.548;2023-05-27T11:33:40;3.65;;;1.90;;
7571;SDS011;3827;49.928;8.548;2023-05-27T11:36:10;3.78;;;2.55;;
7571;SDS011;3827;49.928;8.548;2023-05-27T11:38:51;2.97;;;1.90;;
7571;SDS011;3827;49.928;8.548;2023-05-27T11:41:20;4.25;;;2.30;;
7571;SDS011;3827;49.928;8.548;2023-05-27T11:43:51;5.03;;;2.00;;
7571;SDS011;3827;49.928;8.548;2023-05-27T11:46:21;3.95;;;2.10;;
7571;SDS011;3827;49.928;8.548;2023-05-27T11:48:48;5.13;;;2.23;;
7571;SDS011;3827;49.928;8.548;2023-05-27T11:51:16;4.87;;;2.20;;
7571;SDS011;3827;49.928;8.548;2023-05-27T11:53:46;4.40;;;2.03;;
7571;SDS011;3827;49.928;8.548;2023-05-27T11:56:13;4.47;;;2.30;;
7571;SDS011;3827;49.928;8.548;2023-05-27T11:58:40;4.63;;;2.13;;
7571;SDS011;3827;49.928;8.548;2023-05-27T12:01:07;6.20;;;2.30;;
7571;SDS011;3827;49.928;8.548;2023-05-27T12:03:34;3.88;;;2.10;;
7571;SDS011;3827;49.928;8.548;2023-05-27T12:06:01;3.45;;;2.05;;
7571;SDS011;3827;49.928;8.548;2023-05-27T12:08:30;3.08;;;2.20;;
7571;SDS011;3827;49.928;8.548;2023-05-27T12:10:57;2.97;;;2.05;;
7571;SDS011;3827;49.928;8.548;2023-05-27T12:13:24;4.07;;;2.00;;
7571;SDS011;3827;49.928;8.548;2023-05-27T12:15:51;4.55;;;2.00;;
7571;SDS011;3827;49.928;8.548;2023-05-27T12:18:18;3.65;;;1.98;;
7571;SDS011;3827;49.928;8.548;2023-05-27T12:20:44;4.93;;;2.33;;
7571;SDS011;3827;49.928;8.548;2023-05-27T12:23:11;4.70;;;2.08;;
7571;SDS011;3827;49.928;8.548;2023-05-27T12:25:39;3.67;;;2.05;;
7571;SDS011;3827;49.928;8.548;2023-05-27T12:28:06;3.65;;;1.83;;
7571;SDS011;3827;49.928;8.548;2023-05-27T12:30:34;3.22;;;2.13;;
7571;SDS011;3827;49.928;8.548;2023-05-27T12:33:01;6.30;;;2.30;;
7571;SDS011;3827;49.928;8.548;2023-05-27T12:35:28;4.83;;;2.27;;
7571;SDS011;3827;49.928;8.548;2023-05-27T12:37:56;3.60;;;2.17;;
7571;SDS011;3827;49.928;8.548;2023-05-27T12:40:23;3.42;;;2.00;;
7571;SDS011;3827;49.928;8.548;2023-05-27T12:42:51;5.32;;;2.28;;
7571;SDS011;3827;49.928;8.548;2023-05-27T12:45:18;3.30;;;1.70;;
7571;SDS011;3827;49.928;8.548;2023-05-27T12:47:47;4.22;;;1.90;;
7571;SDS011;3827;49.928;8.548;2023-05-27T12:50:14;3.22;;;1.98;;
7571;SDS011;3827;49.928;8.548;2023-05-27T12:52:41;2.88;;;1.75;;
7571;SDS011;3827;49.928;8.548;2023-05-27T12:55:11;4.20;;;1.88;;
7571;SDS011;3827;49.928;8.548;2023-05-27T12:57:38;4.20;;;2.13;;
7571;SDS011;3827;49.928;8.548;2023-05-27T13:00:07;3.42;;;2.05;;
7571;SDS011;3827;49.928;8.548;2023-05-27T13:02:36;3.15;;;2.00;;
7571;SDS011;3827;49.928;8.548;2023-05-27T13:05:03;4.23;;;2.30;;
7571;SDS011;3827;49.928;8.548;2023-05-27T13:07:31;3.47;;;2.13;;
7571;SDS011;3827;49.928;8.548;2023-05-27T13:09:59;5.65;;;2.25;;
7571;SDS011;3827;49.928;8.548;2023-05-27T13:12:27;4.37;;;2.00;;
7571;SDS011;3827;49.928;8.548;2023-05-27T13:14:54;2.70;;;1.73;;
7571;SDS011;3827;49.928;8.548;2023-05-27T13:17:23;2.90;;;1.65;;
7571;SDS011;3827;49.928;8.548;2023-05-27T13:19:50;3.17;;;1.80;;
7571;SDS011;3827;49.928;8.548;2023-05-27T13:22:17;3.88;;;2.10;;
7571;SDS011;3827;49.928;8.548;2023-05-27T13:24:43;3.30;;;1.90;;
7571;SDS011;3827;49.928;8.548;2023-05-27T13:27:10;4.32;;;1.83;;
7571;SDS011;3827;49.928;8.548;2023-05-27T13:29:37;2.72;;;2.05;;
7571;SDS011;3827;49.928;8.548;2023-05-27T13:32:05;3.80;;;1.75;;
7571;SDS011;3827;49.928;8.548;2023-05-27T13:34:34;2.97;;;2.15;;
7571;SDS011;3827;49.928;8.548;2023-05-27T13:37:01;4.57;;;2.28;;
7571;SDS011;3827;49.928;8.548;2023-05-27T13:39:29;3.50;;;2.17;;
7571;SDS011;3827;49.928;8.548;2023-05-27T13:41:56;3.00;;;2.00;;
7571;SDS011;3827;49.928;8.548;2023-05-27T13:44:23;3.42;;;1.88;;
7571;SDS011;3827;49.928;8.548;2023-05-27T13:46:50;3.38;;;1.98;;
7571;SDS011;3827;49.928;8.548;2023-05-27T13:49:17;3.17;;;1.73;;
7571;SDS011;3827;49.928;8.548;2023-05-27T13:51:46;2.92;;;1.88;;
7571;SDS011;3827;49.928;8.548;2023-05-27T13:54:13;4.82;;;2.17;;
7571;SDS011;3827;49.928;8.548;2023-05-27T13:56:40;3.72;;;2.10;;
7571;SDS011;3827;49.928;8.548;2023-05-27T13:59:07;4.63;;;1.75;;
7571;SDS011;3827;49.928;8.548;2023-05-27T14:01:34;6.28;;;2.13;;
7571;SDS011;3827;49.928;8.548;2023-05-27T14:04:02;3.25;;;1.73;;
7571;SDS011;3827;49.928;8.548;2023-05-27T14:06:29;3.05;;;1.90;;
7571;SDS011;3827;49.928;8.548;2023-05-27T14:08:57;3.42;;;1.98;;
7571;SDS011;3827;49.928;8.548;2023-05-27T14:11:24;3.70;;;2.00;;
7571;SDS011;3827;49.928;8.548;2023-05-27T14:13:51;6.28;;;2.30;;
7571;SDS011;3827;49.928;8.548;2023-05-27T14:16:20;4.55;;;1.95;;
7571;SDS011;3827;49.928;8.548;2023-05-27T14:18:47;3.78;;;2.00;;
7571;SDS011;3827;49.928;8.548;2023-05-27T14:21:14;3.40;;;2.03;;
7571;SDS011;3827;49.928;8.548;2023-05-27T14:23:41;2.50;;;2.00;;
7571;SDS011;3827;49.928;8.548;2023-05-27T14:26:10;2.80;;;1.83;;
7571;SDS011;3827;49.928;8.548;2023-05-27T14:28:36;3.47;;;1.70;;
7571;SDS011;3827;49.928;8.548;2023-05-27T14:31:03;3.70;;;2.03;;
7571;SDS011;3827;49.928;8.548;2023-05-27T14:33:30;2.85;;;1.92;;
7571;SDS011;3827;49.928;8.548;2023-05-27T14:35:57;2.60;;;2.20;;
7571;SDS011;3827;49.928;8.548;2023-05-27T14:38:24;3.47;;;2.33;;
7571;SDS011;3827;49.928;8.548;2023-05-27T14:40:50;2.72;;;1.80;;
7571;SDS011;3827;49.928;8.548;2023-05-27T14:43:19;2.90;;;2.17;;
7571;SDS011;3827;49.928;8.548;2023-05-27T14:45:46;4.27;;;2.27;;
7571;SDS011;3827;49.928;8.548;2023-05-27T14:48:13;4.55;;;2.22;;
7571;SDS011;3827;49.928;8.548;2023-05-27T14:50:39;5.63;;;2.65;;
7571;SDS011;3827;49.928;8.548;2023-05-27T14:53:06;2.97;;;1.85;;
7571;SDS011;3827;49.928;8.548;2023-05-27T14:55:33;3.15;;;1.92;;
7571;SDS011;3827;49.928;8.548;2023-05-27T14:58:00;3.05;;;1.75;;
7571;SDS011;3827;49.928;8.548;2023-05-27T15:00:30;2.42;;;1.70;;
7571;SDS011;3827;49.928;8.548;2023-05-27T15:02:57;3.22;;;1.85;;
7571;SDS011;3827;49.928;8.548;2023-05-27T15:05:24;3.13;;;1.98;;
7571;SDS011;3827;49.928;8.548;2023-05-27T15:07:51;3.78;;;1.75;;
7571;SDS011;3827;49.928;8.548;2023-05-27T15:10:18;4.85;;;1.85;;
7571;SDS011;3827;49.928;8.548;2023-05-27T15:12:45;4.30;;;2.13;;
7571;SDS011;3827;49.928;8.548;2023-05-27T15:15:13;3.35;;;1.95;;
7571;SDS011;3827;49.928;8.548;2023-05-27T15:17:43;3.50;;;1.70;;